sensor_id;sensor_type;location;lat;lon;timestamp;P1;durP1;ratioP1;P2;durP2;ratioP2
13477;SDS011;12598;62.382;17.344;2024-02-15T00:00:17;2.72;;;1.98;;
13477;SDS011;12598;62.382;17.344;2024-02-15T00:01:19;2.17;;;1.98;;
13477;SDS011;12598;62.382;17.344;2024-02-15T00:02:21;2.58;;;2.10;;
13477;SDS011;12598;62.382;17.344;2024-02-15T00:03:23;3.55;;;2.30;;
13477;SDS011;12598;62.382;17.344;2024-02-15T00:04:24;2.63;;;1.90;;
13477;SDS011;12598;62.382;17.344;2024-02-15T00:05:26;3.92;;;2.30;;
13477;SDS011;12598;62.382;17.344;2024-02-15T00:06:28;3.78;;;2.35;;
13477;SDS011;12598;62.382;17.344;2024-02-15T00:07:30;2.65;;;2.10;;
13477;SDS011;12598;62.382;17.344;2024-02-15T00:08:32;3.47;;;2.38;;
13477;SDS011;12598;62.382;17.344;2024-02-15T00:09:34;2.80;;;2.10;;
13477;SDS011;12598;62.382;17.344;2024-02-15T00:10:36;3.55;;;1.92;;
13477;SDS011;12598;62.382;17.344;2024-02-15T00:11:38;2.83;;;1.92;;
13477;SDS011;12598;62.382;17.344;2024-02-15T00:12:40;3.60;;;2.40;;
13477;SDS011;12598;62.382;17.344;2024-02-15T00:13:42;2.75;;;2.05;;
13477;SDS011;12598;62.382;17.344;2024-02-15T00:14:45;2.78;;;2.20;;
13477;SDS011;12598;62.382;17.344;2024-02-15T00:15:47;2.53;;;2.15;;
13477;SDS011;12598;62.382;17.344;2024-02-15T00:16:50;2.67;;;1.83;;
13477;SDS011;12598;62.382;17.344;2024-02-15T00:17:51;2.17;;;1.73;;
13477;SDS011;12598;62.382;17.344;2024-02-15T00:18:53;2.53;;;1.88;;
13477;SDS011;12598;62.382;17.344;2024-02-15T00:19:56;3.55;;;2.22;;
13477;SDS011;12598;62.382;17.344;2024-02-15T00:20:58;2.97;;;2.10;;
13477;SDS011;12598;62.382;17.344;2024-02-15T00:22:01;3.30;;;2.03;;
13477;SDS011;12598;62.382;17.344;2024-02-15T00:23:03;2.83;;;2.20;;
13477;SDS011;12598;62.382;17.344;2024-02-15T00:24:05;3.05;;;2.05;;
13477;SDS011;12598;62.382;17.344;2024-02-15T00:25:09;3.53;;;2.25;;
13477;SDS011;12598;62.382;17.344;2024-02-15T00:26:12;3.03;;;2.13;;
13477;SDS011;12598;62.382;17.344;2024-02-15T00:27:15;2.90;;;2.10;;
13477;SDS011;12598;62.382;17.344;2024-02-15T00:28:17;2.90;;;2.00;;
13477;SDS011;12598;62.382;17.344;2024-02-15T00:29:18;3.17;;;2.10;;
13477;SDS011;12598;62.382;17.344;2024-02-15T00:30:20;2.75;;;2.13;;
13477;SDS011;12598;62.382;17.344;2024-02-15T00:31:23;2.83;;;2.00;;
13477;SDS011;12598;62.382;17.344;2024-02-15T00:32:24;2.75;;;2.10;;
13477;SDS011;12598;62.382;17.344;2024-02-15T00:33:27;3.53;;;2.38;;
13477;SDS011;12598;62.382;17.344;2024-02-15T00:34:30;2.85;;;2.45;;
13477;SDS011;12598;62.382;17.344;2024-02-15T00:35:32;3.55;;;2.45;;
13477;SDS011;12598;62.382;17.344;2024-02-15T00:36:34;3.63;;;2.50;;
13477;SDS011;12598;62.382;17.344;2024-02-15T00:37:36;2.72;;;2.13;;
13477;SDS011;12598;62.382;17.344;2024-02-15T00:38:38;3.33;;;2.03;;
13477;SDS011;12598;62.382;17.344;2024-02-15T00:39:40;2.83;;;2.38;;
13477;SDS011;12598;62.382;17.344;2024-02-15T00:40:41;3.22;;;2.53;;
13477;SDS011;12598;62.382;17.344;2024-02-15T00:41:44;3.55;;;2.60;;
13477;SDS011;12598;62.382;17.344;2024-02-15T00:42:46;2.90;;;2.20;;
13477;SDS011;12598;62.382;17.344;2024-02-15T00:43:48;3.75;;;2.53;;
13477;SDS011;12598;62.382;17.344;2024-02-15T00:44:50;4.32;;;2.47;;
13477;SDS011;12598;62.382;17.344;2024-02-15T00:45:52;3.58;;;2.45;;
13477;SDS011;12598;62.382;17.344;2024-02-15T00:46:54;4.43;;;2.88;;
13477;SDS011;12598;62.382;17.344;2024-02-15T00:47:56;5.03;;;2.83;;
13477;SDS011;12598;62.382;17.344;2024-02-15T00:48:58;5.35;;;3.03;;
13477;SDS011;12598;62.382;17.344;2024-02-15T00:50:01;5.75;;;3.20;;
13477;SDS011;12598;62.382;17.344;2024-02-15T00:51:03;5.03;;;3.08;;
13477;SDS011;12598;62.382;17.344;2024-02-15T00:52:05;5.55;;;3.35;;
13477;SDS011;12598;62.382;17.344;2024-02-15T00:53:07;4.93;;;2.90;;
13477;SDS011;12598;62.382;17.344;2024-02-15T00:54:09;3.72;;;2.92;;
13477;SDS011;12598;62.382;17.344;2024-02-15T00:55:11;4.28;;;2.92;;
13477;SDS011;12598;62.382;17.344;2024-02-15T00:56:12;4.80;;;3.22;;
13477;SDS011;12598;62.382;17.344;2024-02-15T00:57:14;4.82;;;3.00;;
13477;SDS011;12598;62.382;17.344;2024-02-15T00:58:16;3.75;;;2.72;;
13477;SDS011;12598;62.382;17.344;2024-02-15T00:59:18;6.45;;;2.95;;
13477;SDS011;12598;62.382;17.344;2024-02-15T01:00:20;4.60;;;3.38;;
13477;SDS011;12598;62.382;17.344;2024-02-15T01:01:22;4.68;;;2.90;;
13477;SDS011;12598;62.382;17.344;2024-02-15T01:02:23;5.25;;;2.97;;
13477;SDS011;12598;62.382;17.344;2024-02-15T01:03:25;4.00;;;3.03;;
13477;SDS011;12598;62.382;17.344;2024-02-15T01:04:27;4.55;;;2.97;;
13477;SDS011;12598;62.382;17.344;2024-02-15T01:05:30;4.50;;;3.10;;
13477;SDS011;12598;62.382;17.344;2024-02-15T01:06:32;3.90;;;2.90;;
13477;SDS011;12598;62.382;17.344;2024-02-15T01:07:34;3.97;;;2.92;;
13477;SDS011;12598;62.382;17.344;2024-02-15T01:08:36;4.43;;;2.85;;
13477;SDS011;12598;62.382;17.344;2024-02-15T01:09:38;5.78;;;2.92;;
13477;SDS011;12598;62.382;17.344;2024-02-15T01:10:40;4.22;;;2.60;;
13477;SDS011;12598;62.382;17.344;2024-02-15T01:11:41;4.18;;;3.28;;
13477;SDS011;12598;62.382;17.344;2024-02-15T01:12:43;3.45;;;2.30;;
13477;SDS011;12598;62.382;17.344;2024-02-15T01:13:45;4.13;;;3.00;;
13477;SDS011;12598;62.382;17.344;2024-02-15T01:14:47;4.00;;;3.15;;
13477;SDS011;12598;62.382;17.344;2024-02-15T01:15:49;3.33;;;2.67;;
13477;SDS011;12598;62.382;17.344;2024-02-15T01:16:51;3.70;;;2.50;;
13477;SDS011;12598;62.382;17.344;2024-02-15T01:17:53;4.13;;;3.10;;
13477;SDS011;12598;62.382;17.344;2024-02-15T01:18:55;4.63;;;2.90;;
13477;SDS011;12598;62.382;17.344;2024-02-15T01:19:57;3.67;;;2.63;;
13477;SDS011;12598;62.382;17.344;2024-02-15T01:20:59;5.13;;;2.92;;
13477;SDS011;12598;62.382;17.344;2024-02-15T01:22:01;4.25;;;2.63;;
13477;SDS011;12598;62.382;17.344;2024-02-15T01:23:04;3.38;;;2.20;;
13477;SDS011;12598;62.382;17.344;2024-02-15T01:24:09;5.45;;;3.30;;
13477;SDS011;12598;62.382;17.344;2024-02-15T01:25:10;5.57;;;2.83;;
13477;SDS011;12598;62.382;17.344;2024-02-15T01:26:12;3.55;;;2.53;;
13477;SDS011;12598;62.382;17.344;2024-02-15T01:27:15;4.47;;;2.75;;
13477;SDS011;12598;62.382;17.344;2024-02-15T01:28:18;3.17;;;2.28;;
13477;SDS011;12598;62.382;17.344;2024-02-15T01:29:20;5.20;;;2.92;;
13477;SDS011;12598;62.382;17.344;2024-02-15T01:30:22;4.20;;;2.75;;
13477;SDS011;12598;62.382;17.344;2024-02-15T01:31:24;5.13;;;3.13;;
13477;SDS011;12598;62.382;17.344;2024-02-15T01:32:26;5.38;;;2.95;;
13477;SDS011;12598;62.382;17.344;2024-02-15T01:33:27;5.07;;;2.65;;
13477;SDS011;12598;62.382;17.344;2024-02-15T01:34:29;5.35;;;2.92;;
13477;SDS011;12598;62.382;17.344;2024-02-15T01:35:31;4.43;;;3.35;;
13477;SDS011;12598;62.382;17.344;2024-02-15T01:36:33;4.95;;;2.83;;
13477;SDS011;12598;62.382;17.344;2024-02-15T01:37:35;5.97;;;3.15;;
13477;SDS011;12598;62.382;17.344;2024-02-15T01:38:38;4.95;;;3.05;;
13477;SDS011;12598;62.382;17.344;2024-02-15T01:39:40;6.13;;;3.30;;
13477;SDS011;12598;62.382;17.344;2024-02-15T01:40:42;4.70;;;2.72;;
13477;SDS011;12598;62.382;17.344;2024-02-15T01:41:47;5.90;;;3.42;;
13477;SDS011;12598;62.382;17.344;2024-02-15T01:42:50;4.53;;;2.97;;
13477;SDS011;12598;62.382;17.344;2024-02-15T01:43:52;5.40;;;2.85;;
13477;SDS011;12598;62.382;17.344;2024-02-15T01:44:54;4.53;;;3.05;;
13477;SDS011;12598;62.382;17.344;2024-02-15T01:45:56;7.18;;;3.10;;
13477;SDS011;12598;62.382;17.344;2024-02-15T01:47:00;4.97;;;3.08;;
13477;SDS011;12598;62.382;17.344;2024-02-15T01:48:02;4.63;;;2.92;;
13477;SDS011;12598;62.382;17.344;2024-02-15T01:49:05;4.32;;;3.20;;
13477;SDS011;12598;62.382;17.344;2024-02-15T01:50:13;7.53;;;3.35;;
13477;SDS011;12598;62.382;17.344;2024-02-15T01:51:15;4.68;;;3.03;;
13477;SDS011;12598;62.382;17.344;2024-02-15T01:52:19;6.95;;;3.15;;
13477;SDS011;12598;62.382;17.344;2024-02-15T01:53:21;5.43;;;3.35;;
13477;SDS011;12598;62.382;17.344;2024-02-15T01:54:23;5.55;;;3.03;;
13477;SDS011;12598;62.382;17.344;2024-02-15T01:55:25;6.43;;;3.80;;
13477;SDS011;12598;62.382;17.344;2024-02-15T01:56:28;5.60;;;3.22;;
13477;SDS011;12598;62.382;17.344;2024-02-15T01:57:32;5.18;;;3.13;;
13477;SDS011;12598;62.382;17.344;2024-02-15T01:58:34;4.70;;;3.00;;
13477;SDS011;12598;62.382;17.344;2024-02-15T01:59:37;5.07;;;3.15;;
13477;SDS011;12598;62.382;17.344;2024-02-15T02:00:39;5.88;;;3.55;;
13477;SDS011;12598;62.382;17.344;2024-02-15T02:01:41;5.35;;;3.60;;
13477;SDS011;12598;62.382;17.344;2024-02-15T02:02:44;5.68;;;3.25;;
13477;SDS011;12598;62.382;17.344;2024-02-15T02:03:46;4.65;;;3.40;;
13477;SDS011;12598;62.382;17.344;2024-02-15T02:04:48;5.88;;;3.40;;
13477;SDS011;12598;62.382;17.344;2024-02-15T02:05:50;4.38;;;2.83;;
13477;SDS011;12598;62.382;17.344;2024-02-15T02:06:52;5.25;;;2.88;;
13477;SDS011;12598;62.382;17.344;2024-02-15T02:08:00;5.13;;;3.40;;
13477;SDS011;12598;62.382;17.344;2024-02-15T02:09:06;5.03;;;2.85;;
13477;SDS011;12598;62.382;17.344;2024-02-15T02:10:12;5.72;;;3.17;;
13477;SDS011;12598;62.382;17.344;2024-02-15T02:11:13;5.00;;;3.25;;
13477;SDS011;12598;62.382;17.344;2024-02-15T02:12:15;5.15;;;3.17;;
13477;SDS011;12598;62.382;17.344;2024-02-15T02:13:18;4.90;;;3.00;;
13477;SDS011;12598;62.382;17.344;2024-02-15T02:14:20;4.80;;;2.45;;
13477;SDS011;12598;62.382;17.344;2024-02-15T02:15:22;5.65;;;3.00;;
13477;SDS011;12598;62.382;17.344;2024-02-15T02:16:24;6.00;;;3.33;;
13477;SDS011;12598;62.382;17.344;2024-02-15T02:17:30;3.53;;;2.97;;
13477;SDS011;12598;62.382;17.344;2024-02-15T02:18:32;5.50;;;3.40;;
13477;SDS011;12598;62.382;17.344;2024-02-15T02:19:34;4.45;;;2.67;;
13477;SDS011;12598;62.382;17.344;2024-02-15T02:20:39;3.83;;;2.80;;
13477;SDS011;12598;62.382;17.344;2024-02-15T02:21:41;5.20;;;3.28;;
13477;SDS011;12598;62.382;17.344;2024-02-15T02:22:46;5.20;;;3.00;;
13477;SDS011;12598;62.382;17.344;2024-02-15T02:23:52;4.28;;;2.80;;
13477;SDS011;12598;62.382;17.344;2024-02-15T02:25:04;4.20;;;3.05;;
13477;SDS011;12598;62.382;17.344;2024-02-15T02:26:10;5.45;;;3.15;;
13477;SDS011;12598;62.382;17.344;2024-02-15T02:27:13;5.22;;;3.40;;
13477;SDS011;12598;62.382;17.344;2024-02-15T02:28:17;3.45;;;2.85;;
13477;SDS011;12598;62.382;17.344;2024-02-15T02:29:18;4.22;;;2.72;;
13477;SDS011;12598;62.382;17.344;2024-02-15T02:30:22;6.68;;;3.20;;
13477;SDS011;12598;62.382;17.344;2024-02-15T02:31:24;5.03;;;3.13;;
13477;SDS011;12598;62.382;17.344;2024-02-15T02:32:26;3.97;;;2.80;;
13477;SDS011;12598;62.382;17.344;2024-02-15T02:33:28;3.08;;;2.60;;
13477;SDS011;12598;62.382;17.344;2024-02-15T02:34:31;4.85;;;2.92;;
13477;SDS011;12598;62.382;17.344;2024-02-15T02:35:33;3.92;;;2.50;;
13477;SDS011;12598;62.382;17.344;2024-02-15T02:36:35;3.95;;;2.30;;
13477;SDS011;12598;62.382;17.344;2024-02-15T02:37:40;3.45;;;2.30;;
13477;SDS011;12598;62.382;17.344;2024-02-15T02:38:42;2.92;;;2.38;;
13477;SDS011;12598;62.382;17.344;2024-02-15T02:39:46;2.92;;;2.63;;
13477;SDS011;12598;62.382;17.344;2024-02-15T02:40:48;3.50;;;2.45;;
13477;SDS011;12598;62.382;17.344;2024-02-15T02:41:50;3.45;;;2.70;;
13477;SDS011;12598;62.382;17.344;2024-02-15T02:42:52;3.30;;;2.45;;
13477;SDS011;12598;62.382;17.344;2024-02-15T02:43:57;3.22;;;2.25;;
13477;SDS011;12598;62.382;17.344;2024-02-15T02:44:59;4.28;;;2.40;;
13477;SDS011;12598;62.382;17.344;2024-02-15T02:46:01;2.60;;;2.38;;
13477;SDS011;12598;62.382;17.344;2024-02-15T02:47:03;3.40;;;2.40;;
13477;SDS011;12598;62.382;17.344;2024-02-15T02:48:05;3.03;;;2.08;;
13477;SDS011;12598;62.382;17.344;2024-02-15T02:49:08;2.65;;;2.17;;
13477;SDS011;12598;62.382;17.344;2024-02-15T02:50:10;2.75;;;2.22;;
13477;SDS011;12598;62.382;17.344;2024-02-15T02:51:12;3.63;;;2.20;;
13477;SDS011;12598;62.382;17.344;2024-02-15T02:52:14;3.15;;;2.50;;
13477;SDS011;12598;62.382;17.344;2024-02-15T02:53:16;3.50;;;2.60;;
13477;SDS011;12598;62.382;17.344;2024-02-15T02:54:18;2.90;;;2.33;;
13477;SDS011;12598;62.382;17.344;2024-02-15T02:55:19;3.25;;;2.35;;
13477;SDS011;12598;62.382;17.344;2024-02-15T02:56:22;3.00;;;2.42;;
13477;SDS011;12598;62.382;17.344;2024-02-15T02:57:24;2.47;;;2.25;;
13477;SDS011;12598;62.382;17.344;2024-02-15T02:58:26;3.25;;;2.60;;
13477;SDS011;12598;62.382;17.344;2024-02-15T02:59:27;3.63;;;2.60;;
13477;SDS011;12598;62.382;17.344;2024-02-15T03:00:29;2.72;;;2.13;;
13477;SDS011;12598;62.382;17.344;2024-02-15T03:01:31;2.30;;;2.10;;
13477;SDS011;12598;62.382;17.344;2024-02-15T03:02:36;2.70;;;2.38;;
13477;SDS011;12598;62.382;17.344;2024-02-15T03:03:39;2.92;;;2.20;;
13477;SDS011;12598;62.382;17.344;2024-02-15T03:04:41;2.83;;;2.10;;
13477;SDS011;12598;62.382;17.344;2024-02-15T03:05:43;3.08;;;2.10;;
13477;SDS011;12598;62.382;17.344;2024-02-15T03:06:45;2.25;;;1.92;;
13477;SDS011;12598;62.382;17.344;2024-02-15T03:07:48;2.42;;;2.22;;
13477;SDS011;12598;62.382;17.344;2024-02-15T03:08:52;2.40;;;2.00;;
13477;SDS011;12598;62.382;17.344;2024-02-15T03:09:57;3.58;;;2.17;;
13477;SDS011;12598;62.382;17.344;2024-02-15T03:10:58;2.53;;;2.22;;
13477;SDS011;12598;62.382;17.344;2024-02-15T03:12:00;2.72;;;2.30;;
13477;SDS011;12598;62.382;17.344;2024-02-15T03:13:03;2.97;;;2.33;;
13477;SDS011;12598;62.382;17.344;2024-02-15T03:14:06;2.60;;;2.28;;
13477;SDS011;12598;62.382;17.344;2024-02-15T03:15:08;2.70;;;2.03;;
13477;SDS011;12598;62.382;17.344;2024-02-15T03:16:12;3.45;;;2.33;;
13477;SDS011;12598;62.382;17.344;2024-02-15T03:17:14;4.30;;;2.00;;
13477;SDS011;12598;62.382;17.344;2024-02-15T03:18:16;2.60;;;2.13;;
13477;SDS011;12598;62.382;17.344;2024-02-15T03:19:18;2.35;;;2.00;;
13477;SDS011;12598;62.382;17.344;2024-02-15T03:20:20;1.95;;;1.85;;
13477;SDS011;12598;62.382;17.344;2024-02-15T03:21:24;2.80;;;1.88;;
13477;SDS011;12598;62.382;17.344;2024-02-15T03:22:28;2.28;;;1.95;;
13477;SDS011;12598;62.382;17.344;2024-02-15T03:23:31;2.65;;;2.30;;
13477;SDS011;12598;62.382;17.344;2024-02-15T03:24:34;2.40;;;2.20;;
13477;SDS011;12598;62.382;17.344;2024-02-15T03:25:36;2.63;;;2.40;;
13477;SDS011;12598;62.382;17.344;2024-02-15T03:26:38;2.60;;;2.40;;
13477;SDS011;12598;62.382;17.344;2024-02-15T03:27:41;2.33;;;2.13;;
13477;SDS011;12598;62.382;17.344;2024-02-15T03:28:43;2.88;;;2.33;;
13477;SDS011;12598;62.382;17.344;2024-02-15T03:29:46;2.42;;;2.00;;
13477;SDS011;12598;62.382;17.344;2024-02-15T03:30:48;2.95;;;2.58;;
13477;SDS011;12598;62.382;17.344;2024-02-15T03:31:51;2.47;;;2.10;;
13477;SDS011;12598;62.382;17.344;2024-02-15T03:32:55;2.38;;;2.17;;
13477;SDS011;12598;62.382;17.344;2024-02-15T03:34:00;3.10;;;2.20;;
13477;SDS011;12598;62.382;17.344;2024-02-15T03:35:02;2.50;;;2.15;;
13477;SDS011;12598;62.382;17.344;2024-02-15T03:36:05;3.25;;;1.90;;
13477;SDS011;12598;62.382;17.344;2024-02-15T03:37:06;2.75;;;2.42;;
13477;SDS011;12598;62.382;17.344;2024-02-15T03:38:08;2.97;;;2.10;;
13477;SDS011;12598;62.382;17.344;2024-02-15T03:39:10;2.63;;;2.42;;
13477;SDS011;12598;62.382;17.344;2024-02-15T03:40:12;4.15;;;2.25;;
13477;SDS011;12598;62.382;17.344;2024-02-15T03:41:15;2.53;;;2.00;;
13477;SDS011;12598;62.382;17.344;2024-02-15T03:42:17;2.42;;;2.22;;
13477;SDS011;12598;62.382;17.344;2024-02-15T03:43:19;2.10;;;1.90;;
13477;SDS011;12598;62.382;17.344;2024-02-15T03:44:21;2.40;;;2.20;;
13477;SDS011;12598;62.382;17.344;2024-02-15T03:45:27;2.40;;;2.20;;
13477;SDS011;12598;62.382;17.344;2024-02-15T03:46:29;2.60;;;2.20;;
13477;SDS011;12598;62.382;17.344;2024-02-15T03:47:30;2.10;;;1.90;;
13477;SDS011;12598;62.382;17.344;2024-02-15T03:48:34;2.50;;;2.17;;
13477;SDS011;12598;62.382;17.344;2024-02-15T03:49:35;2.47;;;2.28;;
13477;SDS011;12598;62.382;17.344;2024-02-15T03:50:37;2.38;;;2.10;;
13477;SDS011;12598;62.382;17.344;2024-02-15T03:51:40;2.40;;;2.20;;
13477;SDS011;12598;62.382;17.344;2024-02-15T03:52:42;2.22;;;1.83;;
13477;SDS011;12598;62.382;17.344;2024-02-15T03:53:45;2.20;;;1.95;;
13477;SDS011;12598;62.382;17.344;2024-02-15T03:54:47;2.53;;;1.90;;
13477;SDS011;12598;62.382;17.344;2024-02-15T03:55:49;2.38;;;2.10;;
13477;SDS011;12598;62.382;17.344;2024-02-15T03:56:54;3.63;;;2.55;;
13477;SDS011;12598;62.382;17.344;2024-02-15T03:57:59;2.60;;;1.90;;
13477;SDS011;12598;62.382;17.344;2024-02-15T03:59:00;2.00;;;1.80;;
13477;SDS011;12598;62.382;17.344;2024-02-15T04:00:06;2.50;;;2.30;;
13477;SDS011;12598;62.382;17.344;2024-02-15T04:01:12;2.60;;;2.40;;
13477;SDS011;12598;62.382;17.344;2024-02-15T04:02:17;2.58;;;2.30;;
13477;SDS011;12598;62.382;17.344;2024-02-15T04:03:19;2.22;;;1.80;;
13477;SDS011;12598;62.382;17.344;2024-02-15T04:04:21;2.00;;;1.80;;
13477;SDS011;12598;62.382;17.344;2024-02-15T04:05:23;2.15;;;1.95;;
13477;SDS011;12598;62.382;17.344;2024-02-15T04:06:25;2.38;;;1.67;;
13477;SDS011;12598;62.382;17.344;2024-02-15T04:07:30;1.90;;;1.80;;
13477;SDS011;12598;62.382;17.344;2024-02-15T04:08:32;2.63;;;2.10;;
13477;SDS011;12598;62.382;17.344;2024-02-15T04:09:34;2.10;;;1.85;;
13477;SDS011;12598;62.382;17.344;2024-02-15T04:10:37;2.20;;;1.90;;
13477;SDS011;12598;62.382;17.344;2024-02-15T04:11:38;2.75;;;2.05;;
13477;SDS011;12598;62.382;17.344;2024-02-15T04:12:40;1.95;;;1.40;;
13477;SDS011;12598;62.382;17.344;2024-02-15T04:13:44;2.00;;;1.70;;
13477;SDS011;12598;62.382;17.344;2024-02-15T04:14:46;1.63;;;1.30;;
13477;SDS011;12598;62.382;17.344;2024-02-15T04:15:48;1.80;;;1.60;;
13477;SDS011;12598;62.382;17.344;2024-02-15T04:16:52;2.53;;;1.42;;
13477;SDS011;12598;62.382;17.344;2024-02-15T04:17:54;1.80;;;1.70;;
13477;SDS011;12598;62.382;17.344;2024-02-15T04:18:59;1.70;;;1.58;;
13477;SDS011;12598;62.382;17.344;2024-02-15T04:20:03;2.05;;;1.70;;
13477;SDS011;12598;62.382;17.344;2024-02-15T04:21:06;1.65;;;1.55;;
13477;SDS011;12598;62.382;17.344;2024-02-15T04:22:08;1.50;;;1.40;;
13477;SDS011;12598;62.382;17.344;2024-02-15T04:23:12;2.00;;;1.80;;
13477;SDS011;12598;62.382;17.344;2024-02-15T04:24:14;1.67;;;1.58;;
13477;SDS011;12598;62.382;17.344;2024-02-15T04:25:16;2.00;;;1.80;;
13477;SDS011;12598;62.382;17.344;2024-02-15T04:26:19;1.48;;;1.38;;
13477;SDS011;12598;62.382;17.344;2024-02-15T04:27:22;1.42;;;1.33;;
13477;SDS011;12598;62.382;17.344;2024-02-15T04:28:23;1.73;;;1.50;;
13477;SDS011;12598;62.382;17.344;2024-02-15T04:29:26;1.52;;;1.42;;
13477;SDS011;12598;62.382;17.344;2024-02-15T04:30:29;1.80;;;1.70;;
13477;SDS011;12598;62.382;17.344;2024-02-15T04:31:31;1.65;;;1.38;;
13477;SDS011;12598;62.382;17.344;2024-02-15T04:32:38;1.60;;;1.50;;
13477;SDS011;12598;62.382;17.344;2024-02-15T04:33:40;2.15;;;1.52;;
13477;SDS011;12598;62.382;17.344;2024-02-15T04:34:42;1.50;;;1.40;;
13477;SDS011;12598;62.382;17.344;2024-02-15T04:35:45;1.55;;;1.45;;
13477;SDS011;12598;62.382;17.344;2024-02-15T04:36:47;1.73;;;1.30;;
13477;SDS011;12598;62.382;17.344;2024-02-15T04:37:52;1.30;;;1.20;;
13477;SDS011;12598;62.382;17.344;2024-02-15T04:38:54;1.45;;;1.35;;
13477;SDS011;12598;62.382;17.344;2024-02-15T04:39:56;1.60;;;1.50;;
13477;SDS011;12598;62.382;17.344;2024-02-15T04:40:58;1.40;;;1.30;;
13477;SDS011;12598;62.382;17.344;2024-02-15T04:42:02;1.70;;;1.60;;
13477;SDS011;12598;62.382;17.344;2024-02-15T04:43:04;1.58;;;1.48;;
13477;SDS011;12598;62.382;17.344;2024-02-15T04:44:06;1.73;;;1.50;;
13477;SDS011;12598;62.382;17.344;2024-02-15T04:45:11;2.03;;;1.83;;
13477;SDS011;12598;62.382;17.344;2024-02-15T04:46:15;1.50;;;1.40;;
13477;SDS011;12598;62.382;17.344;2024-02-15T04:47:17;1.70;;;1.60;;
13477;SDS011;12598;62.382;17.344;2024-02-15T04:48:19;1.65;;;1.55;;
13477;SDS011;12598;62.382;17.344;2024-02-15T04:49:21;1.48;;;1.38;;
13477;SDS011;12598;62.382;17.344;2024-02-15T04:50:24;1.77;;;1.63;;
13477;SDS011;12598;62.382;17.344;2024-02-15T04:51:27;2.03;;;1.40;;
13477;SDS011;12598;62.382;17.344;2024-02-15T04:52:29;2.00;;;1.73;;
13477;SDS011;12598;62.382;17.344;2024-02-15T04:53:31;1.73;;;1.63;;
13477;SDS011;12598;62.382;17.344;2024-02-15T04:54:34;1.48;;;1.35;;
13477;SDS011;12598;62.382;17.344;2024-02-15T04:55:35;1.80;;;1.70;;
13477;SDS011;12598;62.382;17.344;2024-02-15T04:56:37;1.48;;;1.38;;
13477;SDS011;12598;62.382;17.344;2024-02-15T04:57:39;1.60;;;1.50;;
13477;SDS011;12598;62.382;17.344;2024-02-15T04:58:42;1.75;;;1.65;;
13477;SDS011;12598;62.382;17.344;2024-02-15T04:59:47;1.70;;;1.52;;
13477;SDS011;12598;62.382;17.344;2024-02-15T05:00:50;1.60;;;1.50;;
13477;SDS011;12598;62.382;17.344;2024-02-15T05:01:55;1.95;;;1.40;;
13477;SDS011;12598;62.382;17.344;2024-02-15T05:02:59;1.98;;;1.73;;
13477;SDS011;12598;62.382;17.344;2024-02-15T05:04:01;1.75;;;1.60;;
13477;SDS011;12598;62.382;17.344;2024-02-15T05:05:07;1.75;;;1.50;;
13477;SDS011;12598;62.382;17.344;2024-02-15T05:06:10;1.60;;;1.50;;
13477;SDS011;12598;62.382;17.344;2024-02-15T05:07:14;1.85;;;1.65;;
13477;SDS011;12598;62.382;17.344;2024-02-15T05:08:18;1.77;;;1.50;;
13477;SDS011;12598;62.382;17.344;2024-02-15T05:09:20;1.52;;;1.27;;
13477;SDS011;12598;62.382;17.344;2024-02-15T05:10:22;1.80;;;1.58;;
13477;SDS011;12598;62.382;17.344;2024-02-15T05:11:23;1.77;;;1.42;;
13477;SDS011;12598;62.382;17.344;2024-02-15T05:12:25;1.50;;;1.40;;
13477;SDS011;12598;62.382;17.344;2024-02-15T05:13:27;1.38;;;1.27;;
13477;SDS011;12598;62.382;17.344;2024-02-15T05:14:29;1.90;;;1.80;;
13477;SDS011;12598;62.382;17.344;2024-02-15T05:15:31;1.50;;;1.40;;
13477;SDS011;12598;62.382;17.344;2024-02-15T05:16:34;1.67;;;1.58;;
13477;SDS011;12598;62.382;17.344;2024-02-15T05:17:37;1.75;;;1.65;;
13477;SDS011;12598;62.382;17.344;2024-02-15T05:18:42;1.30;;;1.20;;
13477;SDS011;12598;62.382;17.344;2024-02-15T05:19:44;1.38;;;1.27;;
13477;SDS011;12598;62.382;17.344;2024-02-15T05:20:46;1.45;;;1.27;;
13477;SDS011;12598;62.382;17.344;2024-02-15T05:21:48;1.30;;;1.20;;
13477;SDS011;12598;62.382;17.344;2024-02-15T05:22:50;1.40;;;1.30;;
13477;SDS011;12598;62.382;17.344;2024-02-15T05:23:52;1.55;;;1.45;;
13477;SDS011;12598;62.382;17.344;2024-02-15T05:24:55;1.77;;;1.67;;
13477;SDS011;12598;62.382;17.344;2024-02-15T05:25:57;1.63;;;1.52;;
13477;SDS011;12598;62.382;17.344;2024-02-15T05:26:59;1.10;;;1.00;;
13477;SDS011;12598;62.382;17.344;2024-02-15T05:28:02;1.52;;;1.20;;
13477;SDS011;12598;62.382;17.344;2024-02-15T05:29:07;1.80;;;1.70;;
13477;SDS011;12598;62.382;17.344;2024-02-15T05:30:09;1.30;;;1.20;;
13477;SDS011;12598;62.382;17.344;2024-02-15T05:31:13;1.25;;;1.15;;
13477;SDS011;12598;62.382;17.344;2024-02-15T05:32:19;1.70;;;1.60;;
13477;SDS011;12598;62.382;17.344;2024-02-15T05:33:21;1.35;;;1.20;;
13477;SDS011;12598;62.382;17.344;2024-02-15T05:34:23;1.30;;;1.20;;
13477;SDS011;12598;62.382;17.344;2024-02-15T05:35:27;1.38;;;1.27;;
13477;SDS011;12598;62.382;17.344;2024-02-15T05:36:29;1.42;;;1.33;;
13477;SDS011;12598;62.382;17.344;2024-02-15T05:37:31;1.40;;;1.30;;
13477;SDS011;12598;62.382;17.344;2024-02-15T05:38:36;1.30;;;1.20;;
13477;SDS011;12598;62.382;17.344;2024-02-15T05:39:38;1.50;;;1.40;;
13477;SDS011;12598;62.382;17.344;2024-02-15T05:40:41;1.50;;;1.40;;
13477;SDS011;12598;62.382;17.344;2024-02-15T05:41:43;1.85;;;1.40;;
13477;SDS011;12598;62.382;17.344;2024-02-15T05:42:45;1.42;;;1.33;;
13477;SDS011;12598;62.382;17.344;2024-02-15T05:43:47;1.77;;;1.42;;
13477;SDS011;12598;62.382;17.344;2024-02-15T05:44:49;1.35;;;1.20;;
13477;SDS011;12598;62.382;17.344;2024-02-15T05:45:52;1.67;;;1.50;;
13477;SDS011;12598;62.382;17.344;2024-02-15T05:46:54;1.60;;;1.50;;
13477;SDS011;12598;62.382;17.344;2024-02-15T05:47:56;1.52;;;1.42;;
13477;SDS011;12598;62.382;17.344;2024-02-15T05:48:58;1.48;;;1.27;;
13477;SDS011;12598;62.382;17.344;2024-02-15T05:50:01;2.47;;;1.55;;
13477;SDS011;12598;62.382;17.344;2024-02-15T05:51:07;1.52;;;1.25;;
13477;SDS011;12598;62.382;17.344;2024-02-15T05:52:10;1.60;;;1.50;;
13477;SDS011;12598;62.382;17.344;2024-02-15T05:53:12;1.10;;;1.00;;
13477;SDS011;12598;62.382;17.344;2024-02-15T05:54:14;1.63;;;1.50;;
13477;SDS011;12598;62.382;17.344;2024-02-15T05:55:16;1.45;;;1.30;;
13477;SDS011;12598;62.382;17.344;2024-02-15T05:56:19;1.60;;;1.50;;
13477;SDS011;12598;62.382;17.344;2024-02-15T05:57:21;1.83;;;1.55;;
13477;SDS011;12598;62.382;17.344;2024-02-15T05:58:24;1.52;;;1.20;;
13477;SDS011;12598;62.382;17.344;2024-02-15T05:59:26;1.60;;;1.50;;
13477;SDS011;12598;62.382;17.344;2024-02-15T06:00:28;1.55;;;1.42;;
13477;SDS011;12598;62.382;17.344;2024-02-15T06:01:32;1.50;;;1.40;;
13477;SDS011;12598;62.382;17.344;2024-02-15T06:02:34;1.80;;;1.55;;
13477;SDS011;12598;62.382;17.344;2024-02-15T06:03:37;2.55;;;1.45;;
13477;SDS011;12598;62.382;17.344;2024-02-15T06:04:40;2.17;;;1.83;;
13477;SDS011;12598;62.382;17.344;2024-02-15T06:05:43;1.73;;;1.23;;
13477;SDS011;12598;62.382;17.344;2024-02-15T06:06:45;1.98;;;1.67;;
13477;SDS011;12598;62.382;17.344;2024-02-15T06:07:50;2.15;;;1.52;;
13477;SDS011;12598;62.382;17.344;2024-02-15T06:08:53;1.73;;;1.60;;
13477;SDS011;12598;62.382;17.344;2024-02-15T06:09:56;2.30;;;1.90;;
13477;SDS011;12598;62.382;17.344;2024-02-15T06:10:58;1.50;;;1.25;;